Time;durP1;ratioP1;P1;durP2;ratioP2;P2;SDS_P1;SDS_P2;PMS_P1;PMS_P2;Temp;Humidity;BMP_temperature;BMP_pressure;BME280_temperature;BME280_humidity;BME280_pressure;Samples;Min_cycle;Max_cycle;Signal;HPM_P1;HPM_P2
2023/08/30 00:00:32;;;;;;;;;;;;;;;;;;5090905;28;19918;-70
2023/08/30 00:03:32;;;;;;;;;;;;;;;;;;5091366;27;19938;-70
2023/08/30 00:06:34;;;;;;;;;;;;;;;;;;5112375;27;19923;-70
2023/08/30 00:11:35;;;;;;;;;;;;;;;;;;5112400;27;19991;-70
2023/08/30 00:14:01;;;;;;;;;;;;;;;;;;5111814;28;19998;-70
2023/08/30 00:16:27;;;;;;;;;;;;;;;;;;5111262;28;20007;-70
2023/08/30 00:19:42;;;;;;;;;;;;;;;;;;5091555;27;19938;-70
2023/08/30 00:22:08;;;;;;;;;;;;;;;;;;5091022;28;20003;-71
2023/08/30 00:26:00;;;;;;;;;;;;;;;;;;5111725;27;20365;-70
2023/08/30 00:28:26;;;;;;;;;;;;;;;;;;5111305;28;19966;-70
2023/08/30 00:30:51;;;;;;;;;;;;;;;;;;5111712;28;20313;-70
2023/08/30 00:33:17;;;;;;;;;;;;;;;;;;5111681;28;19934;-70
2023/08/30 00:39:08;;;;;;;;;;;;;;;;;;5092199;28;19922;-69
2023/08/30 00:41:34;;;;;;;;;;;;;;;;;;5091587;28;19919;-71
2023/08/30 00:44:00;;;;;;;;;;;;;;;;;;5089522;28;20012;-70
2023/08/30 00:46:26;;;;;;;;;;;;;;;;;;5089945;28;20002;-70
2023/08/30 00:48:52;;;;;;;;;;;;;;;;;;5091173;28;19909;-69
2023/08/30 00:51:18;;;;;;;;;;;;;;;;;;5090734;28;19909;-70
2023/08/30 00:53:44;;;;;;;;;;;;;;;;;;5091104;28;19908;-69
2023/08/30 00:56:10;;;;;;;;;;;;;;;;;;5090976;28;19915;-69
2023/08/30 01:03:05;;;;;;;;;;;;;;;;;;5152943;27;19919;-70
2023/08/30 01:05:31;;;;;;;;;;;;;;;;;;5152397;27;19951;-70
2023/08/30 01:08:44;;;;;;;;;;;;;;;;;;5133055;27;19916;-70
2023/08/30 01:11:10;;;;;;;;;;;;;;;;;;5131765;28;19934;-70
2023/08/30 01:13:36;;;;;;;;;;;;;;;;;;5132185;28;19908;-70
2023/08/30 01:16:02;;;;;;;;;;;;;;;;;;5147973;27;19907;-70
2023/08/30 01:18:28;;;;;;;;;;;;;;;;;;5131792;28;19912;-70
2023/08/30 01:20:54;;;;;;;;;;;;;;;;;;5131962;28;19918;-70
2023/08/30 01:23:20;;;;;;;;;;;;;;;;;;5131987;28;19961;-70
2023/08/30 01:25:47;;;;;;;;;;;;;;;;;;5131483;28;19936;-70
2023/08/30 01:30:24;;;;;;;;;;;;;;;;;;5112485;27;19916;-70
2023/08/30 01:33:37;;;;;;;;;;;;;;;;;;5111298;27;19918;-69
2023/08/30 01:36:03;;;;;;;;;;;;;;;;;;5111632;28;20018;-69
2023/08/30 01:40:52;;;;;;;;;;;;;;;;;;5152569;27;20050;-69
2023/08/30 01:47:22;;;;;;;;;;;;;;;;;;5131829;27;19915;-70
2023/08/30 01:53:22;;;;;;;;;;;;;;;;;;5111279;27;19916;-70
2023/08/30 01:55:59;;;;;;;;;;;;;;;;;;5091449;27;19916;-69
2023/08/30 01:58:25;;;;;;;;;;;;;;;;;;5091562;28;20429;-69
2023/08/30 02:00:51;;;;;;;;;;;;;;;;;;5089477;28;20341;-69
2023/08/30 02:03:17;;;;;;;;;;;;;;;;;;5091746;28;20306;-70
2023/08/30 02:05:43;;;;;;;;;;;;;;;;;;5089820;28;20390;-69
2023/08/30 02:09:18;;;;;;;;;;;;;;;;;;5091783;27;19923;-69
2023/08/30 02:14:56;;;;;;;;;;;;;;;;;;5111809;27;19915;-70
2023/08/30 02:17:38;;;;;;;;;;;;;;;;;;5111694;27;19916;-69
2023/08/30 02:20:04;;;;;;;;;;;;;;;;;;5111682;28;19912;-69
2023/08/30 02:23:46;;;;;;;;;;;;;;;;;;5091910;28;19923;-69
2023/08/30 02:30:06;;;;;;;;;;;;;;;;;;5111404;27;19916;-72
2023/08/30 02:36:20;;;;;;;;;;;;;;;;;;5091284;27;20380;-70
2023/08/30 02:38:46;;;;;;;;;;;;;;;;;;5091614;28;20007;-70
2023/08/30 02:47:21;;;;;;;;;;;;;;;;;;5051185;28;19917;-69
2023/08/30 02:51:58;;;;;;;;;;;;;;;;;;5091911;27;19917;-70
2023/08/30 02:54:24;;;;;;;;;;;;;;;;;;5091188;28;20023;-69
2023/08/30 02:56:50;;;;;;;;;;;;;;;;;;5090852;28;19913;-69
2023/08/30 02:59:16;;;;;;;;;;;;;;;;;;5091303;28;20364;-70
2023/08/30 03:01:42;;;;;;;;;;;;;;;;;;5091046;28;19908;-69
2023/08/30 03:05:32;;;;;;;;;;;;;;;;;;5111414;27;20375;-70
2023/08/30 03:07:57;;;;;;;;;;;;;;;;;;5111613;28;19912;-70
2023/08/30 03:10:23;;;;;;;;;;;;;;;;;;5111391;28;19961;-70
2023/08/30 03:13:00;;;;;;;;;;;;;;;;;;5091893;27;19922;-70
2023/08/30 03:16:28;;;;;;;;;;;;;;;;;;5091369;27;19922;-70
2023/08/30 03:18:54;;;;;;;;;;;;;;;;;;5090872;28;19919;-70
2023/08/30 03:25:26;;;;;;;;;;;;;;;;;;5111697;27;19916;-70
2023/08/30 03:27:52;;;;;;;;;;;;;;;;;;5111620;28;19912;-70
2023/08/30 03:30:18;;;;;;;;;;;;;;;;;;5111563;28;19908;-70
2023/08/30 03:32:44;;;;;;;;;;;;;;;;;;5111188;28;19908;-70
2023/08/30 03:35:11;;;;;;;;;;;;;;;;;;5111623;28;19912;-71
2023/08/30 03:37:37;;;;;;;;;;;;;;;;;;5111589;28;19912;-70
2023/08/30 03:40:04;;;;;;;;;;;;;;;;;;5109913;28;20343;-70
2023/08/30 03:42:30;;;;;;;;;;;;;;;;;;5111397;28;19908;-70
2023/08/30 03:44:56;;;;;;;;;;;;;;;;;;5111161;28;19927;-71
2023/08/30 03:47:22;;;;;;;;;;;;;;;;;;5110958;28;19908;-70
2023/08/30 03:50:22;;;;;;;;;;;;;;;;;;5173776;27;19918;-70
2023/08/30 03:52:48;;;;;;;;;;;;;;;;;;5173437;27;20332;-70
2023/08/30 03:55:14;;;;;;;;;;;;;;;;;;5154867;27;19911;-69
2023/08/30 04:00:22;;;;;;;;;;;;;;;;;;5071097;28;19923;-69
2023/08/30 04:04:09;;;;;;;;;;;;;;;;;;5091887;27;19917;-70
2023/08/30 04:06:35;;;;;;;;;;;;;;;;;;5091608;28;20287;-70
2023/08/30 04:11:11;;;;;;;;;;;;;;;;;;5091482;27;19918;-70
2023/08/30 04:13:37;;;;;;;;;;;;;;;;;;5089438;28;19999;-69
2023/08/30 04:17:24;;;;;;;;;;;;;;;;;;5091377;28;20365;-70
2023/08/30 04:20:20;;;;;;;;;;;;;;;;;;5111840;27;19923;-70
2023/08/30 04:24:40;;;;;;;;;;;;;;;;;;5112324;27;19916;-70
2023/08/30 04:28:20;;;;;;;;;;;;;;;;;;5111691;27;19922;-70
2023/08/30 04:31:36;;;;;;;;;;;;;;;;;;5112119;27;20294;-70
2023/08/30 04:35:22;;;;;;;;;;;;;;;;;;5070874;28;19923;-70
2023/08/30 04:37:50;;;;;;;;;;;;;;;;;;5070976;28;20011;-70
2023/08/30 04:40:16;;;;;;;;;;;;;;;;;;5070885;28;19930;-69
2023/08/30 04:42:43;;;;;;;;;;;;;;;;;;5070723;28;20360;-70
2023/08/30 04:45:09;;;;;;;;;;;;;;;;;;5070843;28;19913;-69
2023/08/30 04:48:08;;;;;;;;;;;;;;;;;;5132995;27;19912;-70
2023/08/30 04:52:08;;;;;;;;;;;;;;;;;;5111709;27;19916;-69
2023/08/30 04:54:34;;;;;;;;;;;;;;;;;;5112063;28;20003;-69
2023/08/30 05:03:09;;;;;;;;;;;;;;;;;;5111831;27;20290;-69
2023/08/30 05:05:35;;;;;;;;;;;;;;;;;;5111684;28;20010;-69
2023/08/30 05:08:54;;;;;;;;;;;;;;;;;;5091254;27;19923;-69
2023/08/30 05:11:40;;;;;;;;;;;;;;;;;;5111463;27;19916;-70
2023/08/30 05:14:06;;;;;;;;;;;;;;;;;;5111634;28;20455;-69
2023/08/30 05:16:32;;;;;;;;;;;;;;;;;;5111642;28;19950;-70
2023/08/30 05:22:19;;;;;;;;;;;;;;;;;;5112641;27;19916;-69
2023/08/30 05:24:45;;;;;;;;;;;;;;;;;;5112471;28;20427;-70
2023/08/30 05:27:29;;;;;;;;;;;;;;;;;;5114083;27;19922;-69
2023/08/30 05:30:52;;;;;;;;;;;;;;;;;;5112610;27;20360;-71
2023/08/30 05:36:51;;;;;;;;;;;;;;;;;;5155191;27;19911;-70
2023/08/30 05:39:17;;;;;;;;;;;;;;;;;;5153327;27;19912;-70
2023/08/30 05:46:30;;;;;;;;;;;;;;;;;;5111739;27;19916;-70
2023/08/30 05:50:40;;;;;;;;;;;;;;;;;;5091861;27;19916;-69
2023/08/30 05:55:50;;;;;;;;;;;;;;;;;;5091716;27;20303;-69
2023/08/30 06:00:30;;;;;;;;;;;;;;;;;;5139055;27;19915;-72
2023/08/30 06:02:56;;;;;;;;;;;;;;;;;;5128803;27;19912;-71
2023/08/30 06:05:22;;;;;;;;;;;;;;;;;;5116183;28;19916;-70
2023/08/30 06:08:42;;;;;;;;;;;;;;;;;;5097409;27;19924;-72
2023/08/30 06:11:09;;;;;;;;;;;;;;;;;;5109889;28;20447;-72
2023/08/30 06:14:06;;;;;;;;;;;;;;;;;;5088627;27;19916;-72
2023/08/30 06:16:31;;;;;;;;;;;;;;;;;;5089090;28;20365;-72
2023/08/30 06:19:00;;;;;;;;;;;;;;;;;;5089040;28;19909;-73
2023/08/30 06:22:10;;;;;;;;;;;;;;;;;;5068365;28;19912;-73
2023/08/30 06:25:50;;;;;;;;;;;;;;;;;;5087982;27;19936;-71
2023/08/30 06:33:21;;;;;;;;;;;;;;;;;;5010533;28;20020;-72
2023/08/30 06:38:13;;;;;;;;;;;;;;;;;;5089769;28;19923;-72
2023/08/30 06:40:39;;;;;;;;;;;;;;;;;;5090840;28;19995;-74
2023/08/30 06:43:05;;;;;;;;;;;;;;;;;;5090660;28;19909;-73
2023/08/30 06:46:01;;;;;;;;;;;;;;;;;;5090495;27;19923;-73
2023/08/30 06:49:38;;;;;;;;;;;;;;;;;;5173498;27;19964;-73
2023/08/30 06:54:11;;;;;;;;;;;;;;;;;;5111824;27;20259;-74
2023/08/30 06:56:37;;;;;;;;;;;;;;;;;;5105666;28;19938;-71
2023/08/30 07:00:13;;;;;;;;;;;;;;;;;;5087882;27;19934;-71
2023/08/30 07:02:39;;;;;;;;;;;;;;;;;;5067548;28;19928;-71
2023/08/30 07:05:05;;;;;;;;;;;;;;;;;;5067725;28;19996;-70
2023/08/30 07:08:20;;;;;;;;;;;;;;;;;;5108549;27;19922;-71
2023/08/30 07:11:16;;;;;;;;;;;;;;;;;;5087986;28;20376;-71
2023/08/30 07:13:42;;;;;;;;;;;;;;;;;;5088763;28;19912;-70
2023/08/30 07:18:00;;;;;;;;;;;;;;;;;;5141398;27;19927;-67
2023/08/30 07:20:26;;;;;;;;;;;;;;;;;;5129742;28;19911;-69
2023/08/30 07:23:45;;;;;;;;;;;;;;;;;;5070476;28;19923;-66
2023/08/30 07:26:11;;;;;;;;;;;;;;;;;;5070639;28;19995;-67
2023/08/30 07:28:37;;;;;;;;;;;;;;;;;;5069277;28;19959;-68
2023/08/30 07:31:03;;;;;;;;;;;;;;;;;;5070471;28;19916;-67
2023/08/30 07:33:29;;;;;;;;;;;;;;;;;;5070022;28;20007;-65
2023/08/30 07:35:55;;;;;;;;;;;;;;;;;;5070533;28;19955;-65
2023/08/30 07:38:21;;;;;;;;;;;;;;;;;;5070098;28;19934;-66
2023/08/30 07:40:47;;;;;;;;;;;;;;;;;;5070199;28;19915;-66
2023/08/30 07:43:13;;;;;;;;;;;;;;;;;;5070349;28;19916;-67
2023/08/30 07:47:18;;;;;;;;;;;;;;;;;;5090660;27;19916;-69
2023/08/30 07:49:44;;;;;;;;;;;;;;;;;;5088771;28;19979;-69
2023/08/30 07:52:10;;;;;;;;;;;;;;;;;;5088179;28;20314;-69
2023/08/30 07:54:36;;;;;;;;;;;;;;;;;;5084712;28;19919;-68
2023/08/30 07:57:03;;;;;;;;;;;;;;;;;;5069445;28;19909;-66
2023/08/30 07:59:29;;;;;;;;;;;;;;;;;;5066736;28;19943;-68
2023/08/30 08:01:55;;;;;;;;;;;;;;;;;;5095595;28;19947;-67
2023/08/30 08:04:21;;;;;;;;;;;;;;;;;;5105859;28;19919;-68
2023/08/30 08:06:47;;;;;;;;;;;;;;;;;;5088354;28;20291;-68
2023/08/30 08:09:13;;;;;;;;;;;;;;;;;;5089252;28;19916;-68
2023/08/30 08:11:43;;;;;;;;;;;;;;;;;;5089622;28;19920;-68
2023/08/30 08:15:55;;;;;;;;;;;;;;;;;;5090222;27;19939;-69
2023/08/30 08:19:56;;;;;;;;;;;;;;;;;;5148864;27;19939;-72
2023/08/30 08:22:22;;;;;;;;;;;;;;;;;;5150242;27;20371;-70
2023/08/30 08:24:51;;;;;;;;;;;;;;;;;;5145964;27;19907;-70
2023/08/30 08:27:17;;;;;;;;;;;;;;;;;;5114310;28;20366;-70
2023/08/30 08:32:11;;;;;;;;;;;;;;;;;;5172087;27;19919;-71
2023/08/30 08:39:05;;;;;;;;;;;;;;;;;;5090596;27;20405;-69
2023/08/30 08:41:31;;;;;;;;;;;;;;;;;;5077111;28;19970;-69
2023/08/30 08:43:57;;;;;;;;;;;;;;;;;;5070025;28;19912;-69
2023/08/30 08:46:23;;;;;;;;;;;;;;;;;;5070859;28;19991;-68
2023/08/30 08:48:49;;;;;;;;;;;;;;;;;;5068371;28;20262;-68
2023/08/30 08:51:15;;;;;;;;;;;;;;;;;;5068182;28;20354;-69
2023/08/30 08:53:41;;;;;;;;;;;;;;;;;;5067928;28;19955;-67
2023/08/30 08:56:08;;;;;;;;;;;;;;;;;;5077646;28;19948;-67
2023/08/30 08:58:33;;;;;;;;;;;;;;;;;;5068343;28;20383;-68
2023/08/30 09:00:59;;;;;;;;;;;;;;;;;;5068349;28;19913;-67
2023/08/30 09:03:25;;;;;;;;;;;;;;;;;;5068720;28;19919;-67
2023/08/30 09:05:51;;;;;;;;;;;;;;;;;;5055893;28;19913;-66
2023/08/30 09:08:17;;;;;;;;;;;;;;;;;;5060392;28;19962;-68
2023/08/30 09:10:43;;;;;;;;;;;;;;;;;;5056291;28;19920;-69
2023/08/30 09:13:09;;;;;;;;;;;;;;;;;;5055946;28;19913;-69
2023/08/30 09:15:38;;;;;;;;;;;;;;;;;;5047618;28;19924;-69
2023/08/30 09:18:04;;;;;;;;;;;;;;;;;;5061481;28;20003;-68
2023/08/30 09:20:30;;;;;;;;;;;;;;;;;;5069290;28;19990;-70
2023/08/30 09:22:56;;;;;;;;;;;;;;;;;;5069651;28;20272;-70
2023/08/30 09:25:23;;;;;;;;;;;;;;;;;;5067048;28;19917;-69
2023/08/30 09:27:49;;;;;;;;;;;;;;;;;;5068062;28;19992;-71
2023/08/30 09:30:15;;;;;;;;;;;;;;;;;;5065918;28;20008;-70
2023/08/30 09:32:41;;;;;;;;;;;;;;;;;;5072655;28;19908;-69
2023/08/30 09:35:08;;;;;;;;;;;;;;;;;;5070829;28;19974;-70
2023/08/30 09:37:34;;;;;;;;;;;;;;;;;;5071203;28;19924;-71
2023/08/30 09:40:00;;;;;;;;;;;;;;;;;;5085831;28;19912;-68
2023/08/30 09:42:26;;;;;;;;;;;;;;;;;;5086049;28;20422;-70
2023/08/30 09:44:52;;;;;;;;;;;;;;;;;;5085262;28;19920;-69
2023/08/30 09:47:18;;;;;;;;;;;;;;;;;;5086907;28;19947;-69
2023/08/30 09:49:45;;;;;;;;;;;;;;;;;;5077795;28;20027;-68
2023/08/30 09:52:11;;;;;;;;;;;;;;;;;;5075725;28;19909;-69
2023/08/30 09:54:41;;;;;;;;;;;;;;;;;;5077848;28;19965;-67
2023/08/30 09:57:07;;;;;;;;;;;;;;;;;;5096009;28;19912;-70
2023/08/30 09:59:33;;;;;;;;;;;;;;;;;;5079152;28;19927;-70
2023/08/30 10:02:00;;;;;;;;;;;;;;;;;;5074974;28;19920;-70
2023/08/30 10:04:26;;;;;;;;;;;;;;;;;;5075369;28;19952;-69
2023/08/30 10:06:53;;;;;;;;;;;;;;;;;;5074533;28;20017;-70
2023/08/30 10:09:19;;;;;;;;;;;;;;;;;;5075092;28;19922;-70
2023/08/30 10:11:45;;;;;;;;;;;;;;;;;;5075617;28;20390;-71
2023/08/30 10:14:11;;;;;;;;;;;;;;;;;;5073832;28;19912;-70
2023/08/30 10:16:37;;;;;;;;;;;;;;;;;;5057113;28;19956;-70
2023/08/30 10:19:04;;;;;;;;;;;;;;;;;;5077362;28;19920;-70
2023/08/30 10:21:30;;;;;;;;;;;;;;;;;;5073972;28;19913;-69
2023/08/30 10:23:56;;;;;;;;;;;;;;;;;;5074268;28;19982;-70
2023/08/30 10:26:21;;;;;;;;;;;;;;;;;;5057107;28;19916;-70
2023/08/30 10:28:47;;;;;;;;;;;;;;;;;;5075440;28;19909;-69
2023/08/30 10:31:13;;;;;;;;;;;;;;;;;;5074743;28;19913;-70
2023/08/30 10:33:39;;;;;;;;;;;;;;;;;;5056853;28;19919;-71
2023/08/30 10:36:05;;;;;;;;;;;;;;;;;;5074603;28;19912;-69
2023/08/30 10:38:32;;;;;;;;;;;;;;;;;;5073803;28;19927;-71
2023/08/30 10:40:57;;;;;;;;;;;;;;;;;;5074195;28;19917;-69
2023/08/30 10:43:23;;;;;;;;;;;;;;;;;;5074825;28;20007;-71
2023/08/30 10:45:49;;;;;;;;;;;;;;;;;;5075117;28;19932;-69
2023/08/30 10:48:15;;;;;;;;;;;;;;;;;;5074633;28;19931;-71
2023/08/30 10:50:41;;;;;;;;;;;;;;;;;;5051305;28;20281;-70
2023/08/30 10:53:07;;;;;;;;;;;;;;;;;;5074417;28;19916;-69
2023/08/30 10:55:33;;;;;;;;;;;;;;;;;;5088356;28;19923;-69
2023/08/30 10:57:59;;;;;;;;;;;;;;;;;;5085911;28;20365;-70
2023/08/30 11:00:25;;;;;;;;;;;;;;;;;;5073223;28;20388;-69
2023/08/30 11:02:51;;;;;;;;;;;;;;;;;;5073356;28;19956;-69
2023/08/30 11:05:17;;;;;;;;;;;;;;;;;;5075347;28;19959;-69
2023/08/30 11:07:43;;;;;;;;;;;;;;;;;;5082613;28;20406;-70
2023/08/30 11:10:09;;;;;;;;;;;;;;;;;;5073370;28;20349;-70
2023/08/30 11:12:35;;;;;;;;;;;;;;;;;;5074059;28;20376;-70
2023/08/30 11:15:02;;;;;;;;;;;;;;;;;;5057004;28;19913;-70
2023/08/30 11:17:27;;;;;;;;;;;;;;;;;;5074979;28;19928;-70
2023/08/30 11:19:53;;;;;;;;;;;;;;;;;;5074068;28;19913;-70
2023/08/30 11:22:20;;;;;;;;;;;;;;;;;;5073596;28;19999;-69
2023/08/30 11:24:46;;;;;;;;;;;;;;;;;;5073996;28;19908;-69
2023/08/30 11:27:15;;;;;;;;;;;;;;;;;;5073551;28;20007;-70
2023/08/30 11:29:41;;;;;;;;;;;;;;;;;;5073465;28;19912;-70
2023/08/30 11:32:07;;;;;;;;;;;;;;;;;;5073685;28;19913;-69
2023/08/30 11:34:33;;;;;;;;;;;;;;;;;;5073025;28;19919;-69
2023/08/30 11:36:59;;;;;;;;;;;;;;;;;;5072362;28;19929;-71
2023/08/30 11:39:25;;;;;;;;;;;;;;;;;;5072942;28;19954;-69
2023/08/30 11:41:51;;;;;;;;;;;;;;;;;;5073246;28;19963;-69
2023/08/30 11:44:17;;;;;;;;;;;;;;;;;;5072838;28;20280;-70
2023/08/30 11:46:43;;;;;;;;;;;;;;;;;;5073400;28;19951;-70
2023/08/30 11:49:09;;;;;;;;;;;;;;;;;;5072487;28;19913;-69
2023/08/30 11:51:35;;;;;;;;;;;;;;;;;;5073304;28;20435;-70
2023/08/30 11:54:03;;;;;;;;;;;;;;;;;;5073764;28;20383;-67
2023/08/30 11:56:29;;;;;;;;;;;;;;;;;;5055418;28;20379;-68
2023/08/30 11:58:55;;;;;;;;;;;;;;;;;;5071792;28;20039;-68
2023/08/30 12:01:20;;;;;;;;;;;;;;;;;;5072048;28;20003;-70
2023/08/30 12:03:50;;;;;;;;;;;;;;;;;;5073593;28;19962;-71
2023/08/30 12:06:16;;;;;;;;;;;;;;;;;;5054915;28;19920;-69
2023/08/30 12:08:42;;;;;;;;;;;;;;;;;;5073114;28;19909;-68
2023/08/30 12:11:08;;;;;;;;;;;;;;;;;;5055930;28;19908;-69
2023/08/30 12:13:34;;;;;;;;;;;;;;;;;;5071805;28;19943;-69
2023/08/30 12:16:00;;;;;;;;;;;;;;;;;;5071446;28;19912;-68
2023/08/30 12:18:29;;;;;;;;;;;;;;;;;;5072165;28;19916;-67
2023/08/30 12:20:54;;;;;;;;;;;;;;;;;;5073115;28;19916;-67
2023/08/30 12:23:21;;;;;;;;;;;;;;;;;;5093712;28;19914;-67
2023/08/30 12:25:47;;;;;;;;;;;;;;;;;;5086474;28;19939;-68
2023/08/30 12:28:13;;;;;;;;;;;;;;;;;;5073206;28;19934;-67
2023/08/30 12:30:39;;;;;;;;;;;;;;;;;;5072474;28;20388;-68
2023/08/30 12:33:05;;;;;;;;;;;;;;;;;;5078518;28;20003;-68
2023/08/30 12:35:31;;;;;;;;;;;;;;;;;;5093427;28;19958;-67
2023/08/30 12:37:57;;;;;;;;;;;;;;;;;;5083862;28;19927;-68
2023/08/30 12:40:23;;;;;;;;;;;;;;;;;;5071488;28;19908;-69
2023/08/30 12:42:49;;;;;;;;;;;;;;;;;;5072810;28;19995;-68
2023/08/30 12:45:15;;;;;;;;;;;;;;;;;;5072769;28;19943;-69
2023/08/30 12:47:41;;;;;;;;;;;;;;;;;;5072135;28;19959;-69
2023/08/30 12:50:09;;;;;;;;;;;;;;;;;;5055264;28;19908;-68
2023/08/30 12:52:35;;;;;;;;;;;;;;;;;;5073300;28;19912;-68
2023/08/30 12:55:01;;;;;;;;;;;;;;;;;;5072977;28;19909;-68
2023/08/30 12:57:27;;;;;;;;;;;;;;;;;;5072407;28;19966;-69
2023/08/30 12:59:53;;;;;;;;;;;;;;;;;;5073165;28;19954;-67
2023/08/30 13:02:19;;;;;;;;;;;;;;;;;;5054159;28;19936;-70
2023/08/30 13:04:44;;;;;;;;;;;;;;;;;;5072478;28;20303;-70
2023/08/30 13:07:11;;;;;;;;;;;;;;;;;;5073209;28;19909;-68
2023/08/30 13:09:36;;;;;;;;;;;;;;;;;;5072619;28;19965;-68
2023/08/30 13:12:03;;;;;;;;;;;;;;;;;;5072768;28;19913;-70
2023/08/30 13:14:29;;;;;;;;;;;;;;;;;;5071963;28;19919;-68
2023/08/30 13:16:55;;;;;;;;;;;;;;;;;;5071512;28;19916;-69
2023/08/30 13:19:21;;;;;;;;;;;;;;;;;;5072538;28;19924;-71
2023/08/30 13:21:47;;;;;;;;;;;;;;;;;;5054818;28;19909;-67
2023/08/30 13:24:13;;;;;;;;;;;;;;;;;;5073317;28;19912;-68
2023/08/30 13:26:39;;;;;;;;;;;;;;;;;;5073141;28;19919;-67
2023/08/30 13:29:05;;;;;;;;;;;;;;;;;;5082459;28;19916;-73
2023/08/30 13:31:31;;;;;;;;;;;;;;;;;;5074308;28;19915;-73
2023/08/30 13:33:58;;;;;;;;;;;;;;;;;;5074605;28;19956;-73
2023/08/30 13:36:23;;;;;;;;;;;;;;;;;;5073839;28;19999;-73
2023/08/30 13:38:49;;;;;;;;;;;;;;;;;;5073034;28;20035;-74
2023/08/30 13:41:16;;;;;;;;;;;;;;;;;;5074147;28;20308;-74
2023/08/30 13:43:41;;;;;;;;;;;;;;;;;;5074431;28;20372;-72
2023/08/30 13:46:07;;;;;;;;;;;;;;;;;;5075616;28;19916;-72
2023/08/30 13:48:35;;;;;;;;;;;;;;;;;;5076291;28;19909;-72
2023/08/30 13:51:01;;;;;;;;;;;;;;;;;;5076519;28;19909;-71
2023/08/30 13:53:28;;;;;;;;;;;;;;;;;;5076530;28;19916;-72
2023/08/30 13:55:53;;;;;;;;;;;;;;;;;;5076425;28;19908;-72
2023/08/30 13:58:19;;;;;;;;;;;;;;;;;;5075805;28;20295;-72
2023/08/30 14:00:45;;;;;;;;;;;;;;;;;;5076233;28;19912;-72
2023/08/30 14:03:11;;;;;;;;;;;;;;;;;;5092166;28;19908;-72
2023/08/30 14:05:40;;;;;;;;;;;;;;;;;;5092063;28;19908;-72
2023/08/30 14:08:06;;;;;;;;;;;;;;;;;;5076586;28;20352;-73
2023/08/30 14:10:32;;;;;;;;;;;;;;;;;;5092645;28;19909;-72
2023/08/30 14:12:58;;;;;;;;;;;;;;;;;;5092304;28;20003;-73
2023/08/30 14:15:24;;;;;;;;;;;;;;;;;;5076483;28;19909;-73
2023/08/30 14:17:50;;;;;;;;;;;;;;;;;;5076094;28;20380;-73
2023/08/30 14:20:16;;;;;;;;;;;;;;;;;;5091359;28;19954;-73
2023/08/30 14:22:42;;;;;;;;;;;;;;;;;;5075876;28;19908;-72
2023/08/30 14:25:08;;;;;;;;;;;;;;;;;;5075998;28;20010;-72
2023/08/30 14:27:33;;;;;;;;;;;;;;;;;;5075505;28;19943;-72
2023/08/30 14:30:00;;;;;;;;;;;;;;;;;;5076240;28;19913;-73
2023/08/30 14:32:26;;;;;;;;;;;;;;;;;;5091543;28;19961;-74
2023/08/30 14:34:52;;;;;;;;;;;;;;;;;;5091165;28;20328;-74
2023/08/30 14:37:18;;;;;;;;;;;;;;;;;;5075547;28;20017;-73
2023/08/30 14:39:44;;;;;;;;;;;;;;;;;;5090890;28;19909;-73
2023/08/30 14:42:10;;;;;;;;;;;;;;;;;;5075737;28;19909;-73
2023/08/30 14:44:36;;;;;;;;;;;;;;;;;;5091328;28;19909;-73
2023/08/30 14:47:02;;;;;;;;;;;;;;;;;;5075244;28;20360;-74
2023/08/30 14:49:28;;;;;;;;;;;;;;;;;;5075601;28;20384;-74
2023/08/30 14:51:54;;;;;;;;;;;;;;;;;;5075772;28;20327;-71
2023/08/30 14:54:20;;;;;;;;;;;;;;;;;;5075368;28;19970;-72
2023/08/30 14:56:46;;;;;;;;;;;;;;;;;;5075776;28;20322;-72
2023/08/30 14:59:12;;;;;;;;;;;;;;;;;;5075991;28;20398;-72
2023/08/30 15:01:39;;;;;;;;;;;;;;;;;;5090514;28;20279;-72
2023/08/30 15:04:05;;;;;;;;;;;;;;;;;;5075239;28;19921;-73
2023/08/30 15:06:31;;;;;;;;;;;;;;;;;;5075729;28;19913;-73
2023/08/30 15:08:57;;;;;;;;;;;;;;;;;;5074753;28;19909;-73
2023/08/30 15:11:23;;;;;;;;;;;;;;;;;;5090759;28;20291;-72
2023/08/30 15:13:49;;;;;;;;;;;;;;;;;;5090864;28;19908;-72
2023/08/30 15:16:15;;;;;;;;;;;;;;;;;;5075235;28;20288;-72
2023/08/30 15:18:41;;;;;;;;;;;;;;;;;;5075257;28;20312;-72
2023/08/30 15:21:07;;;;;;;;;;;;;;;;;;5074779;28;20431;-72
2023/08/30 15:23:37;;;;;;;;;;;;;;;;;;5074593;28;20368;-72
2023/08/30 15:26:03;;;;;;;;;;;;;;;;;;5074933;28;19908;-72
2023/08/30 15:28:29;;;;;;;;;;;;;;;;;;5075743;28;19916;-72
2023/08/30 15:30:57;;;;;;;;;;;;;;;;;;5075709;28;19958;-72
2023/08/30 15:33:24;;;;;;;;;;;;;;;;;;5074943;28;20360;-72
2023/08/30 15:35:50;;;;;;;;;;;;;;;;;;5089737;28;20375;-74
2023/08/30 15:38:16;;;;;;;;;;;;;;;;;;5074387;28;19921;-73
2023/08/30 15:40:42;;;;;;;;;;;;;;;;;;5074422;28;19909;-73
2023/08/30 15:43:08;;;;;;;;;;;;;;;;;;5074089;28;19912;-73
2023/08/30 15:45:34;;;;;;;;;;;;;;;;;;5074356;28;19909;-72
2023/08/30 15:48:00;;;;;;;;;;;;;;;;;;5074112;28;19943;-72
2023/08/30 15:50:27;;;;;;;;;;;;;;;;;;5074957;28;19915;-72
2023/08/30 15:52:53;;;;;;;;;;;;;;;;;;5076602;28;19908;-72
2023/08/30 15:55:19;;;;;;;;;;;;;;;;;;5074832;28;19955;-71
2023/08/30 15:57:45;;;;;;;;;;;;;;;;;;5073975;28;19962;-72
2023/08/30 16:00:12;;;;;;;;;;;;;;;;;;5074090;28;19912;-72
2023/08/30 16:02:37;;;;;;;;;;;;;;;;;;5073930;28;19954;-72
2023/08/30 16:05:03;;;;;;;;;;;;;;;;;;5073115;28;19955;-72
2023/08/30 16:07:29;;;;;;;;;;;;;;;;;;5074048;28;19908;-72
2023/08/30 16:09:55;;;;;;;;;;;;;;;;;;5074234;28;19920;-73
2023/08/30 16:12:21;;;;;;;;;;;;;;;;;;5074632;28;19916;-72
2023/08/30 16:14:47;;;;;;;;;;;;;;;;;;5088765;28;19908;-73
2023/08/30 16:17:13;;;;;;;;;;;;;;;;;;5073809;28;19967;-72
2023/08/30 16:19:39;;;;;;;;;;;;;;;;;;5072878;28;19962;-72
2023/08/30 16:22:05;;;;;;;;;;;;;;;;;;5087945;28;19912;-72
2023/08/30 16:24:32;;;;;;;;;;;;;;;;;;5073379;28;20272;-72
2023/08/30 16:27:00;;;;;;;;;;;;;;;;;;5088764;28;19908;-72
2023/08/30 16:29:26;;;;;;;;;;;;;;;;;;5075335;28;20276;-72
2023/08/30 16:31:51;;;;;;;;;;;;;;;;;;5074299;28;19966;-72
2023/08/30 16:34:19;;;;;;;;;;;;;;;;;;5073366;28;19909;-71
2023/08/30 16:36:45;;;;;;;;;;;;;;;;;;5073794;28;20335;-72
2023/08/30 16:39:11;;;;;;;;;;;;;;;;;;5088399;28;20356;-72
2023/08/30 16:41:37;;;;;;;;;;;;;;;;;;5089066;28;19953;-71
2023/08/30 16:44:03;;;;;;;;;;;;;;;;;;5073696;28;19995;-72
2023/08/30 16:46:31;;;;;;;;;;;;;;;;;;5073456;28;19916;-72
2023/08/30 16:48:57;;;;;;;;;;;;;;;;;;5089274;28;19908;-71
2023/08/30 16:51:23;;;;;;;;;;;;;;;;;;5073555;28;19977;-70
2023/08/30 16:53:49;;;;;;;;;;;;;;;;;;5073284;28;19908;-72
2023/08/30 16:56:15;;;;;;;;;;;;;;;;;;5073646;28;19919;-72
2023/08/30 16:58:41;;;;;;;;;;;;;;;;;;5089276;28;20380;-71
2023/08/30 17:01:07;;;;;;;;;;;;;;;;;;5077459;28;19915;-71
2023/08/30 17:03:33;;;;;;;;;;;;;;;;;;5077747;28;19908;-71
2023/08/30 17:07:22;;;;;;;;;;;;;;;;;;5111701;27;19922;-72
2023/08/30 17:09:48;;;;;;;;;;;;;;;;;;5111828;28;19998;-72
2023/08/30 17:12:14;;;;;;;;;;;;;;;;;;5110548;28;19953;-72
2023/08/30 17:14:40;;;;;;;;;;;;;;;;;;5111172;28;19961;-72
2023/08/30 17:17:06;;;;;;;;;;;;;;;;;;5111443;28;19908;-71
2023/08/30 17:19:32;;;;;;;;;;;;;;;;;;5111464;28;19947;-72
2023/08/30 17:21:58;;;;;;;;;;;;;;;;;;5111034;28;19990;-72
2023/08/30 17:25:35;;;;;;;;;;;;;;;;;;5174533;27;19921;-72
2023/08/30 17:28:01;;;;;;;;;;;;;;;;;;5174685;27;19998;-71
2023/08/30 17:31:22;;;;;;;;;;;;;;;;;;5092842;28;19917;-72
2023/08/30 17:33:48;;;;;;;;;;;;;;;;;;5091512;28;20329;-73
2023/08/30 17:36:14;;;;;;;;;;;;;;;;;;5090833;28;20004;-72
2023/08/30 17:40:52;;;;;;;;;;;;;;;;;;5092777;28;19928;-72
2023/08/30 17:43:18;;;;;;;;;;;;;;;;;;5092432;28;20455;-72
2023/08/30 17:45:45;;;;;;;;;;;;;;;;;;5091455;28;20329;-72
2023/08/30 17:48:11;;;;;;;;;;;;;;;;;;5091569;28;19908;-72
2023/08/30 17:50:37;;;;;;;;;;;;;;;;;;5090937;28;19958;-72
2023/08/30 17:53:03;;;;;;;;;;;;;;;;;;5091118;28;19952;-72
2023/08/30 17:55:29;;;;;;;;;;;;;;;;;;5089684;28;19915;-72
2023/08/30 17:57:55;;;;;;;;;;;;;;;;;;5090617;28;19915;-72
2023/08/30 18:00:21;;;;;;;;;;;;;;;;;;5091072;28;19916;-72
2023/08/30 18:02:47;;;;;;;;;;;;;;;;;;5091036;28;19908;-72
2023/08/30 18:05:13;;;;;;;;;;;;;;;;;;5089176;28;19916;-72
2023/08/30 18:07:39;;;;;;;;;;;;;;;;;;5090866;28;19951;-72
2023/08/30 18:10:05;;;;;;;;;;;;;;;;;;5091011;28;19909;-73
2023/08/30 18:12:31;;;;;;;;;;;;;;;;;;5090324;28;20326;-72
2023/08/30 18:14:57;;;;;;;;;;;;;;;;;;5090618;28;19951;-70
2023/08/30 18:17:24;;;;;;;;;;;;;;;;;;5090509;28;19908;-72
2023/08/30 18:19:50;;;;;;;;;;;;;;;;;;5090093;28;20023;-72
2023/08/30 18:23:45;;;;;;;;;;;;;;;;;;5091334;27;20284;-71
2023/08/30 18:28:39;;;;;;;;;;;;;;;;;;5111819;27;19916;-71
2023/08/30 18:31:05;;;;;;;;;;;;;;;;;;5111608;28;19965;-72
2023/08/30 18:33:31;;;;;;;;;;;;;;;;;;5111129;28;19912;-72
2023/08/30 18:37:41;;;;;;;;;;;;;;;;;;5152678;27;20311;-71
2023/08/30 18:41:33;;;;;;;;;;;;;;;;;;5112429;27;19922;-71
2023/08/30 18:43:59;;;;;;;;;;;;;;;;;;5110443;28;19978;-71
2023/08/30 18:46:25;;;;;;;;;;;;;;;;;;5111215;28;19999;-71
2023/08/30 18:51:46;;;;;;;;;;;;;;;;;;5112151;27;19918;-72
2023/08/30 18:54:12;;;;;;;;;;;;;;;;;;5111395;28;20006;-72
2023/08/30 18:56:38;;;;;;;;;;;;;;;;;;5111751;28;19912;-72
2023/08/30 18:59:04;;;;;;;;;;;;;;;;;;5111590;28;19999;-71
2023/08/30 19:03:00;;;;;;;;;;;;;;;;;;5111756;27;19928;-72
2023/08/30 19:05:26;;;;;;;;;;;;;;;;;;5111636;28;20433;-73